UAE678 OMDB-OERK
Flight info
| Callsign | UAE678 |
|---|---|
| Flight time | 2h 1m |
| Altitude | 40000 |
| Route | ANVIX R401 GIDIS G783 RIGIL M628 PEKEM/N0509F280 M628 AMBAG M321 NAGUB |
| Aircraft | A359/H-SDE2E3GHIJ3J4J5LM1ORWXY/LB1D1 |
Departure
| Time | 2026-04-20 14:43 |
|---|---|
| Airport | Dubai International Airport (OMDB) |
Arrival
| Time | 2026-04-20 16:44 |
|---|---|
| Airport | King Khalid International Airport (OERK) |
| Time | Latitude | Longitude | Altitude | Speed | Heading |
|---|---|---|---|---|---|
| 2026-04-20 14:16 | 25.24474 | 55.37143 | 27 ft | 0 kts | 211° |
| 2026-04-20 14:30 | 25.24479 | 55.37147 | 25 ft | 2 kts | 211° |
| 2026-04-20 14:31 | 25.24496 | 55.37159 | 28 ft | 3 kts | 211° |
| 2026-04-20 14:31 | 25.24514 | 55.37170 | 25 ft | 3 kts | 211° |
| 2026-04-20 14:31 | 25.24530 | 55.37181 | 26 ft | 3 kts | 202° |
| 2026-04-20 14:31 | 25.24548 | 55.37186 | 24 ft | 3 kts | 169° |
| 2026-04-20 14:32 | 25.24565 | 55.37178 | 26 ft | 3 kts | 132° |
| 2026-04-20 14:32 | 25.24575 | 55.37165 | 25 ft | 1 kts | 122° |
| 2026-04-20 14:32 | 25.24582 | 55.37151 | 27 ft | 3 kts | 122° |
| 2026-04-20 14:32 | 25.24591 | 55.37135 | 26 ft | 1 kts | 122° |
| 2026-04-20 14:33 | 25.24592 | 55.37134 | 26 ft | 0 kts | 122° |
| 2026-04-20 14:35 | 25.24590 | 55.37137 | 25 ft | 2 kts | 122° |
| 2026-04-20 14:36 | 25.24568 | 55.37176 | 26 ft | 9 kts | 122° |
| 2026-04-20 14:36 | 25.24558 | 55.37193 | 24 ft | 5 kts | 122° |
| 2026-04-20 14:36 | 25.24527 | 55.37249 | 27 ft | 12 kts | 122° |
| 2026-04-20 14:36 | 25.24468 | 55.37354 | 27 ft | 19 kts | 122° |
| 2026-04-20 14:37 | 25.24394 | 55.37485 | 27 ft | 21 kts | 122° |
| 2026-04-20 14:37 | 25.24314 | 55.37628 | 27 ft | 20 kts | 122° |
| 2026-04-20 14:37 | 25.24259 | 55.37729 | 27 ft | 11 kts | 113° |
| 2026-04-20 14:37 | 25.24288 | 55.37788 | 28 ft | 10 kts | 39° |
| 2026-04-20 14:38 | 25.24340 | 55.37828 | 28 ft | 0 kts | 33° |
| 2026-04-20 14:41 | 25.24368 | 55.37848 | 28 ft | 10 kts | 33° |
| 2026-04-20 14:41 | 25.24444 | 55.37907 | 31 ft | 15 kts | 34° |
| 2026-04-20 14:41 | 25.24534 | 55.37975 | 30 ft | 17 kts | 34° |
| 2026-04-20 14:42 | 25.24642 | 55.38055 | 30 ft | 19 kts | 31° |
| 2026-04-20 14:42 | 25.24760 | 55.38094 | 32 ft | 17 kts | 335° |
| 2026-04-20 14:42 | 25.24829 | 55.37985 | 31 ft | 19 kts | 301° |
| 2026-04-20 14:42 | 25.24982 | 55.37710 | 32 ft | 77 kts | 301° |
| 2026-04-20 14:43 | 25.25382 | 55.36988 | 32 ft | 142 kts | 301° |
| 2026-04-20 14:43 | 25.25989 | 55.35923 | 331 ft | 173 kts | 302° |
| 2026-04-20 14:43 | 25.26660 | 55.34741 | 890 ft | 191 kts | 302° |
| 2026-04-20 14:43 | 25.27402 | 55.33442 | 1468 ft | 206 kts | 302° |
| 2026-04-20 14:44 | 25.28176 | 55.32085 | 1912 ft | 214 kts | 302° |
| 2026-04-20 14:44 | 25.28933 | 55.30614 | 2267 ft | 226 kts | 295° |
| 2026-04-20 14:44 | 25.29198 | 55.28885 | 2748 ft | 235 kts | 262° |
| 2026-04-20 14:44 | 25.28669 | 55.27179 | 3377 ft | 237 kts | 247° |
| 2026-04-20 14:45 | 25.27950 | 55.25525 | 3914 ft | 241 kts | 246° |
| 2026-04-20 14:45 | 25.27208 | 55.23848 | 4471 ft | 244 kts | 246° |
| 2026-04-20 14:45 | 25.26468 | 55.22149 | 5053 ft | 246 kts | 247° |
| 2026-04-20 14:45 | 25.25729 | 55.20440 | 5641 ft | 247 kts | 247° |
| 2026-04-20 14:46 | 25.24972 | 55.18732 | 6233 ft | 249 kts | 243° |
| 2026-04-20 14:46 | 25.23834 | 55.17286 | 6714 ft | 255 kts | 216° |
| 2026-04-20 14:46 | 25.22142 | 55.16688 | 7103 ft | 263 kts | 183° |
| 2026-04-20 14:46 | 25.20293 | 55.16816 | 7544 ft | 271 kts | 169° |
| 2026-04-20 14:47 | 25.18579 | 55.17653 | 8015 ft | 274 kts | 141° |
| 2026-04-20 14:47 | 25.17341 | 55.19296 | 8333 ft | 285 kts | 118° |
| 2026-04-20 14:47 | 25.16408 | 55.21261 | 8711 ft | 294 kts | 115° |
| 2026-04-20 14:48 | 25.14510 | 55.25350 | 9479 ft | 305 kts | 116° |
| 2026-04-20 14:48 | 25.13505 | 55.27473 | 9760 ft | 319 kts | 116° |
| 2026-04-20 14:48 | 25.12455 | 55.29683 | 9998 ft | 332 kts | 117° |
| 2026-04-20 14:48 | 25.11356 | 55.31972 | 10222 ft | 344 kts | 117° |
| 2026-04-20 14:49 | 25.10225 | 55.34346 | 10426 ft | 355 kts | 115° |
| 2026-04-20 14:49 | 25.09177 | 55.36856 | 10723 ft | 363 kts | 112° |
| 2026-04-20 14:49 | 25.08153 | 55.39416 | 11094 ft | 367 kts | 112° |
| 2026-04-20 14:49 | 25.07106 | 55.42008 | 11466 ft | 372 kts | 113° |
| 2026-04-20 14:50 | 25.06078 | 55.44645 | 11778 ft | 378 kts | 111° |
| 2026-04-20 14:50 | 25.05056 | 55.47346 | 12097 ft | 384 kts | 111° |
| 2026-04-20 14:50 | 25.04019 | 55.50075 | 12464 ft | 387 kts | 111° |
| 2026-04-20 14:50 | 25.02968 | 55.52823 | 12835 ft | 391 kts | 111° |
| 2026-04-20 14:51 | 25.01843 | 55.55568 | 13146 ft | 396 kts | 116° |
| 2026-04-20 14:51 | 25.00481 | 55.58218 | 13517 ft | 399 kts | 120° |
| 2026-04-20 14:51 | 24.99048 | 55.60864 | 13857 ft | 402 kts | 120° |
| 2026-04-20 14:51 | 24.97609 | 55.63514 | 14223 ft | 403 kts | 120° |
| 2026-04-20 14:52 | 24.96168 | 55.66171 | 14608 ft | 405 kts | 120° |
| 2026-04-20 14:52 | 24.94724 | 55.68829 | 15002 ft | 406 kts | 120° |
| 2026-04-20 14:52 | 24.93147 | 55.71421 | 15363 ft | 407 kts | 125° |
| 2026-04-20 14:52 | 24.91479 | 55.73952 | 15720 ft | 409 kts | 126° |
| 2026-04-20 14:53 | 24.89795 | 55.76482 | 16107 ft | 410 kts | 126° |
| 2026-04-20 14:53 | 24.88106 | 55.79022 | 16510 ft | 412 kts | 126° |
| 2026-04-20 14:53 | 24.86416 | 55.81565 | 16878 ft | 413 kts | 126° |
| 2026-04-20 14:53 | 24.84712 | 55.84130 | 17252 ft | 414 kts | 126° |
| 2026-04-20 14:54 | 24.83006 | 55.86697 | 17651 ft | 416 kts | 126° |
| 2026-04-20 14:54 | 24.81269 | 55.89241 | 18028 ft | 417 kts | 128° |
| 2026-04-20 14:54 | 24.79228 | 55.91524 | 18310 ft | 419 kts | 143° |
| 2026-04-20 14:54 | 24.76686 | 55.93057 | 18603 ft | 419 kts | 162° |
| 2026-04-20 14:55 | 24.73840 | 55.93699 | 18893 ft | 419 kts | 176° |
| 2026-04-20 14:55 | 24.70924 | 55.93846 | 19202 ft | 419 kts | 181° |
| 2026-04-20 14:55 | 24.68004 | 55.93794 | 19485 ft | 420 kts | 184° |
| 2026-04-20 14:55 | 24.65077 | 55.93642 | 19796 ft | 421 kts | 186° |
| 2026-04-20 14:56 | 24.62195 | 55.93138 | 20093 ft | 420 kts | 197° |
| 2026-04-20 14:56 | 24.59451 | 55.92055 | 20394 ft | 418 kts | 208° |
| 2026-04-20 14:56 | 24.56987 | 55.90382 | 20710 ft | 416 kts | 219° |
| 2026-04-20 14:56 | 24.54710 | 55.88423 | 20999 ft | 416 kts | 222° |
| 2026-04-20 14:57 | 24.52515 | 55.86350 | 21302 ft | 417 kts | 224° |
| 2026-04-20 14:57 | 24.50352 | 55.84221 | 21610 ft | 418 kts | 225° |
| 2026-04-20 14:57 | 24.48190 | 55.82074 | 21904 ft | 419 kts | 225° |
| 2026-04-20 14:57 | 24.46019 | 55.79928 | 22191 ft | 421 kts | 224° |
| 2026-04-20 14:58 | 24.43830 | 55.77786 | 22476 ft | 422 kts | 224° |
| 2026-04-20 14:58 | 24.41630 | 55.75654 | 22774 ft | 424 kts | 224° |
| 2026-04-20 14:58 | 24.39412 | 55.73516 | 23036 ft | 425 kts | 224° |
| 2026-04-20 14:58 | 24.37186 | 55.71379 | 23328 ft | 426 kts | 224° |
| 2026-04-20 14:59 | 24.34952 | 55.69239 | 23572 ft | 428 kts | 224° |
| 2026-04-20 14:59 | 24.32700 | 55.67082 | 23771 ft | 430 kts | 224° |
| 2026-04-20 14:59 | 24.30448 | 55.64925 | 23985 ft | 431 kts | 224° |
| 2026-04-20 14:59 | 24.28143 | 55.62806 | 24206 ft | 434 kts | 220° |
| 2026-04-20 15:00 | 24.25585 | 55.61022 | 24413 ft | 440 kts | 211° |
| 2026-04-20 15:00 | 24.22744 | 55.59721 | 24642 ft | 445 kts | 202° |
| 2026-04-20 15:00 | 24.19789 | 55.58686 | 24864 ft | 447 kts | 200° |
| 2026-04-20 15:00 | 24.16785 | 55.57755 | 25092 ft | 449 kts | 198° |
| 2026-04-20 15:01 | 24.13757 | 55.56872 | 25332 ft | 451 kts | 198° |
| 2026-04-20 15:01 | 24.10724 | 55.56004 | 25565 ft | 452 kts | 198° |
| 2026-04-20 15:01 | 24.07679 | 55.55128 | 25807 ft | 453 kts | 198° |
| 2026-04-20 15:01 | 24.04630 | 55.54240 | 26050 ft | 454 kts | 198° |
| 2026-04-20 15:02 | 24.01567 | 55.53337 | 26281 ft | 456 kts | 198° |
| 2026-04-20 15:02 | 23.98500 | 55.52431 | 26514 ft | 457 kts | 198° |
| 2026-04-20 15:02 | 23.95419 | 55.51518 | 26728 ft | 460 kts | 198° |
| 2026-04-20 15:02 | 23.92322 | 55.50596 | 26948 ft | 462 kts | 198° |
| 2026-04-20 15:03 | 23.89260 | 55.49684 | 27185 ft | 464 kts | 198° |
| 2026-04-20 15:03 | 23.86139 | 55.48755 | 27441 ft | 465 kts | 198° |
| 2026-04-20 15:03 | 23.83012 | 55.47830 | 27693 ft | 467 kts | 198° |
| 2026-04-20 15:03 | 23.79866 | 55.46898 | 27947 ft | 469 kts | 198° |
| 2026-04-20 15:04 | 23.76714 | 55.45961 | 28218 ft | 471 kts | 198° |
| 2026-04-20 15:04 | 23.73549 | 55.45019 | 28481 ft | 472 kts | 198° |
| 2026-04-20 15:04 | 23.70368 | 55.44073 | 28713 ft | 475 kts | 198° |
| 2026-04-20 15:04 | 23.67171 | 55.43124 | 28909 ft | 478 kts | 198° |
| 2026-04-20 15:05 | 23.63951 | 55.42169 | 29192 ft | 480 kts | 198° |
| 2026-04-20 15:05 | 23.60726 | 55.41214 | 29456 ft | 482 kts | 198° |
| 2026-04-20 15:05 | 23.57483 | 55.40253 | 29732 ft | 484 kts | 198° |
| 2026-04-20 15:05 | 23.54229 | 55.39291 | 29993 ft | 486 kts | 198° |
| 2026-04-20 15:06 | 23.50954 | 55.38323 | 30206 ft | 488 kts | 198° |
| 2026-04-20 15:06 | 23.47669 | 55.37356 | 30426 ft | 491 kts | 198° |
| 2026-04-20 15:06 | 23.44363 | 55.36379 | 30643 ft | 493 kts | 198° |
| 2026-04-20 15:06 | 23.41048 | 55.35398 | 30844 ft | 496 kts | 198° |
| 2026-04-20 15:07 | 23.37711 | 55.34409 | 31026 ft | 499 kts | 198° |
| 2026-04-20 15:07 | 23.34354 | 55.33416 | 31268 ft | 501 kts | 199° |
| 2026-04-20 15:07 | 23.30979 | 55.32419 | 31468 ft | 503 kts | 199° |
| 2026-04-20 15:07 | 23.27595 | 55.31421 | 31692 ft | 505 kts | 199° |
| 2026-04-20 15:08 | 23.24194 | 55.30418 | 31902 ft | 507 kts | 199° |
| 2026-04-20 15:08 | 23.20785 | 55.29414 | 32103 ft | 509 kts | 199° |
| 2026-04-20 15:08 | 23.17357 | 55.28404 | 32308 ft | 511 kts | 199° |
| 2026-04-20 15:08 | 23.13940 | 55.27319 | 32478 ft | 511 kts | 203° |
| 2026-04-20 15:09 | 23.10683 | 55.25814 | 32632 ft | 508 kts | 212° |
| 2026-04-20 15:09 | 23.07703 | 55.23807 | 32853 ft | 502 kts | 221° |
| 2026-04-20 15:09 | 23.05928 | 55.22216 | 33055 ft | 496 kts | 228° |
| 2026-04-20 15:09 | 23.02935 | 55.18499 | 33517 ft | 485 kts | 240° |
| 2026-04-20 15:10 | 23.01761 | 55.16447 | 33749 ft | 479 kts | 246° |
| 2026-04-20 15:10 | 23.00410 | 55.13188 | 34067 ft | 471 kts | 255° |
| 2026-04-20 15:10 | 22.99556 | 55.09787 | 34429 ft | 462 kts | 264° |
| 2026-04-20 15:10 | 22.99141 | 55.06364 | 34823 ft | 456 kts | 268° |
| 2026-04-20 15:11 | 22.98624 | 55.02977 | 35252 ft | 454 kts | 264° |
| 2026-04-20 15:11 | 22.98028 | 54.99623 | 35684 ft | 450 kts | 265° |
| 2026-04-20 15:11 | 22.97421 | 54.96315 | 36219 ft | 444 kts | 265° |
| 2026-04-20 15:11 | 22.96801 | 54.93046 | 36658 ft | 441 kts | 265° |
| 2026-04-20 15:12 | 22.96171 | 54.89801 | 37033 ft | 439 kts | 265° |
| 2026-04-20 15:12 | 22.95535 | 54.86568 | 37397 ft | 437 kts | 265° |
| 2026-04-20 15:12 | 22.94897 | 54.83355 | 37771 ft | 434 kts | 265° |
| 2026-04-20 15:12 | 22.94260 | 54.80163 | 38157 ft | 432 kts | 265° |
| 2026-04-20 15:13 | 22.93626 | 54.76987 | 38533 ft | 429 kts | 266° |
| 2026-04-20 15:13 | 22.92995 | 54.73827 | 38757 ft | 428 kts | 266° |
| 2026-04-20 15:13 | 22.92366 | 54.70672 | 38966 ft | 428 kts | 266° |
| 2026-04-20 15:13 | 22.91737 | 54.67511 | 39108 ft | 430 kts | 266° |
| 2026-04-20 15:14 | 22.91105 | 54.64336 | 39259 ft | 431 kts | 265° |
| 2026-04-20 15:14 | 22.90470 | 54.61157 | 39411 ft | 432 kts | 265° |
| 2026-04-20 15:14 | 22.89834 | 54.57976 | 39577 ft | 432 kts | 265° |
| 2026-04-20 15:14 | 22.89203 | 54.54827 | 39723 ft | 433 kts | 265° |
| 2026-04-20 15:15 | 22.88562 | 54.51632 | 39807 ft | 434 kts | 265° |
| 2026-04-20 15:15 | 22.87277 | 54.45252 | 39812 ft | 432 kts | 265° |
| 2026-04-20 15:16 | 22.85985 | 54.38848 | 39815 ft | 432 kts | 265° |
| 2026-04-20 15:16 | 22.84710 | 54.32530 | 39810 ft | 432 kts | 265° |
| 2026-04-20 15:17 | 22.83424 | 54.26167 | 39812 ft | 432 kts | 265° |
| 2026-04-20 15:17 | 22.82133 | 54.19803 | 39813 ft | 432 kts | 265° |
| 2026-04-20 15:18 | 22.80844 | 54.13458 | 39807 ft | 431 kts | 265° |
| 2026-04-20 15:18 | 22.79556 | 54.07129 | 39809 ft | 431 kts | 265° |
| 2026-04-20 15:19 | 22.78358 | 54.00774 | 39812 ft | 426 kts | 269° |
| 2026-04-20 15:19 | 22.78163 | 53.94443 | 39809 ft | 418 kts | 277° |
| 2026-04-20 15:20 | 22.78343 | 53.88142 | 39809 ft | 417 kts | 278° |
| 2026-04-20 15:20 | 22.78576 | 53.81866 | 39813 ft | 416 kts | 277° |
| 2026-04-20 15:21 | 22.78798 | 53.75611 | 39811 ft | 416 kts | 277° |
| 2026-04-20 15:21 | 22.79006 | 53.69355 | 39812 ft | 414 kts | 277° |
| 2026-04-20 15:22 | 22.79206 | 53.63117 | 39808 ft | 414 kts | 277° |
| 2026-04-20 15:22 | 22.79404 | 53.56887 | 39808 ft | 414 kts | 277° |
| 2026-04-20 15:23 | 22.79599 | 53.50657 | 39814 ft | 414 kts | 277° |
| 2026-04-20 15:23 | 22.79792 | 53.44420 | 39810 ft | 414 kts | 277° |
| 2026-04-20 15:24 | 22.79983 | 53.38191 | 39813 ft | 414 kts | 277° |
| 2026-04-20 15:24 | 22.80171 | 53.31960 | 39813 ft | 414 kts | 277° |
| 2026-04-20 15:25 | 22.80357 | 53.25725 | 39812 ft | 414 kts | 277° |
| 2026-04-20 15:25 | 22.80540 | 53.19498 | 39806 ft | 413 kts | 277° |
| 2026-04-20 15:26 | 22.80719 | 53.13314 | 39810 ft | 413 kts | 277° |
| 2026-04-20 15:26 | 22.80898 | 53.07096 | 39810 ft | 413 kts | 277° |
| 2026-04-20 15:27 | 22.81074 | 53.00875 | 39802 ft | 413 kts | 277° |
| 2026-04-20 15:27 | 22.81247 | 52.94655 | 39805 ft | 412 kts | 277° |
| 2026-04-20 15:28 | 22.81418 | 52.88441 | 39808 ft | 412 kts | 277° |
| 2026-04-20 15:28 | 22.81586 | 52.82227 | 39802 ft | 412 kts | 277° |
| 2026-04-20 15:29 | 22.81752 | 52.76020 | 39794 ft | 412 kts | 277° |
| 2026-04-20 15:29 | 22.81915 | 52.69811 | 39804 ft | 412 kts | 277° |
| 2026-04-20 15:30 | 22.82075 | 52.63614 | 39799 ft | 411 kts | 277° |
| 2026-04-20 15:30 | 22.82234 | 52.57414 | 39798 ft | 411 kts | 277° |
| 2026-04-20 15:31 | 22.82390 | 52.51215 | 39794 ft | 411 kts | 277° |
| 2026-04-20 15:31 | 22.82539 | 52.45028 | 39796 ft | 410 kts | 277° |
| 2026-04-20 15:32 | 22.82665 | 52.38848 | 39796 ft | 410 kts | 276° |
| 2026-04-20 15:32 | 22.82787 | 52.32664 | 39793 ft | 410 kts | 276° |
| 2026-04-20 15:33 | 22.82910 | 52.26476 | 39794 ft | 410 kts | 276° |
| 2026-04-20 15:33 | 22.83031 | 52.20305 | 39796 ft | 410 kts | 276° |
| 2026-04-20 15:34 | 22.83151 | 52.14135 | 39786 ft | 409 kts | 276° |
| 2026-04-20 15:34 | 22.83268 | 52.07964 | 39798 ft | 409 kts | 276° |
| 2026-04-20 15:35 | 22.83383 | 52.01806 | 39792 ft | 408 kts | 276° |
| 2026-04-20 15:35 | 22.83494 | 51.95660 | 39793 ft | 407 kts | 276° |
| 2026-04-20 15:36 | 22.83604 | 51.89525 | 39792 ft | 407 kts | 276° |
| 2026-04-20 15:36 | 22.83711 | 51.83390 | 39793 ft | 407 kts | 276° |
| 2026-04-20 15:37 | 22.83816 | 51.77250 | 39788 ft | 407 kts | 276° |
| 2026-04-20 15:37 | 22.83918 | 51.71111 | 39788 ft | 407 kts | 276° |
| 2026-04-20 15:38 | 22.84018 | 51.64977 | 39790 ft | 407 kts | 276° |
| 2026-04-20 15:38 | 22.84115 | 51.58882 | 39790 ft | 407 kts | 276° |
| 2026-04-20 15:39 | 22.84211 | 51.52757 | 39790 ft | 406 kts | 276° |
| 2026-04-20 15:39 | 22.84303 | 51.46633 | 39791 ft | 406 kts | 276° |
| 2026-04-20 15:40 | 22.84572 | 51.40534 | 39797 ft | 404 kts | 279° |
| 2026-04-20 15:40 | 22.85063 | 51.34473 | 39796 ft | 404 kts | 279° |
| 2026-04-20 15:41 | 22.85543 | 51.28370 | 39799 ft | 404 kts | 278° |
| 2026-04-20 15:41 | 22.85972 | 51.22337 | 39797 ft | 404 kts | 278° |
| 2026-04-20 15:42 | 22.86385 | 51.16264 | 39805 ft | 404 kts | 278° |
| 2026-04-20 15:42 | 22.86796 | 51.10194 | 39800 ft | 404 kts | 278° |
| 2026-04-20 15:43 | 22.87204 | 51.04119 | 39801 ft | 404 kts | 278° |
| 2026-04-20 15:43 | 22.87608 | 50.98047 | 39802 ft | 404 kts | 278° |
| 2026-04-20 15:44 | 22.88010 | 50.91975 | 39796 ft | 404 kts | 278° |
| 2026-04-20 15:44 | 22.88411 | 50.85905 | 39788 ft | 404 kts | 278° |
| 2026-04-20 15:45 | 22.88811 | 50.79825 | 39798 ft | 404 kts | 278° |
| 2026-04-20 15:45 | 22.89208 | 50.73749 | 39793 ft | 404 kts | 278° |
| 2026-04-20 15:46 | 22.89604 | 50.67668 | 39791 ft | 404 kts | 278° |
| 2026-04-20 15:46 | 22.89996 | 50.61583 | 39786 ft | 405 kts | 278° |
| 2026-04-20 15:47 | 22.90390 | 50.55483 | 39794 ft | 405 kts | 278° |
| 2026-04-20 15:47 | 22.90777 | 50.49396 | 39788 ft | 404 kts | 278° |
| 2026-04-20 15:48 | 22.91162 | 50.43317 | 39787 ft | 404 kts | 278° |
| 2026-04-20 15:48 | 22.91546 | 50.37232 | 39784 ft | 405 kts | 278° |
| 2026-04-20 15:49 | 22.91929 | 50.31127 | 39788 ft | 406 kts | 278° |
| 2026-04-20 15:49 | 22.92310 | 50.25015 | 39788 ft | 406 kts | 278° |
| 2026-04-20 15:50 | 22.92687 | 50.18906 | 39767 ft | 406 kts | 278° |
| 2026-04-20 15:50 | 22.93064 | 50.12786 | 39782 ft | 408 kts | 278° |
| 2026-04-20 15:51 | 22.93439 | 50.06646 | 39781 ft | 408 kts | 278° |
| 2026-04-20 15:51 | 22.93812 | 50.00506 | 39777 ft | 408 kts | 278° |
| 2026-04-20 15:52 | 22.94182 | 49.94362 | 39775 ft | 409 kts | 278° |
| 2026-04-20 15:52 | 22.94553 | 49.88204 | 39780 ft | 409 kts | 278° |
| 2026-04-20 15:53 | 22.95098 | 49.79011 | 39768 ft | 406 kts | 278° |
| 2026-04-20 15:53 | 22.95459 | 49.72892 | 39771 ft | 407 kts | 278° |
| 2026-04-20 15:54 | 22.95819 | 49.66757 | 39773 ft | 408 kts | 278° |
| 2026-04-20 15:54 | 22.96178 | 49.60603 | 39772 ft | 409 kts | 278° |
| 2026-04-20 15:55 | 22.96533 | 49.54448 | 39769 ft | 409 kts | 278° |
| 2026-04-20 15:55 | 22.96887 | 49.48288 | 39767 ft | 409 kts | 278° |
| 2026-04-20 15:56 | 22.97179 | 49.43171 | 39768 ft | 409 kts | 278° |
| 2026-04-20 15:56 | 22.97529 | 49.37007 | 39769 ft | 409 kts | 278° |
| 2026-04-20 15:57 | 22.97876 | 49.30838 | 39766 ft | 409 kts | 278° |
| 2026-04-20 15:57 | 22.98221 | 49.24679 | 39762 ft | 408 kts | 277° |
| 2026-04-20 15:58 | 22.98560 | 49.18544 | 39761 ft | 408 kts | 277° |
| 2026-04-20 15:58 | 22.98900 | 49.12398 | 39765 ft | 408 kts | 277° |
| 2026-04-20 15:59 | 22.99238 | 49.06250 | 39768 ft | 408 kts | 276° |
| 2026-04-20 15:59 | 22.99570 | 49.00126 | 39765 ft | 406 kts | 276° |
| 2026-04-20 16:00 | 22.99988 | 48.94026 | 39768 ft | 405 kts | 278° |
| 2026-04-20 16:00 | 23.00517 | 48.87945 | 39771 ft | 405 kts | 278° |
| 2026-04-20 16:01 | 23.01037 | 48.81875 | 39766 ft | 405 kts | 278° |
| 2026-04-20 16:01 | 23.01535 | 48.75785 | 39766 ft | 405 kts | 278° |
| 2026-04-20 16:02 | 23.02021 | 48.69691 | 39774 ft | 405 kts | 278° |
| 2026-04-20 16:02 | 23.02505 | 48.63598 | 39768 ft | 405 kts | 278° |
| 2026-04-20 16:03 | 23.02987 | 48.57505 | 39776 ft | 405 kts | 277° |
| 2026-04-20 16:03 | 23.03466 | 48.51418 | 39768 ft | 404 kts | 277° |
| 2026-04-20 16:04 | 23.03942 | 48.45345 | 39771 ft | 404 kts | 277° |
| 2026-04-20 16:04 | 23.04417 | 48.39266 | 39768 ft | 405 kts | 277° |
| 2026-04-20 16:05 | 23.04890 | 48.33177 | 39766 ft | 405 kts | 277° |
| 2026-04-20 16:05 | 23.05361 | 48.27078 | 39766 ft | 405 kts | 277° |
| 2026-04-20 16:06 | 23.05829 | 48.20983 | 39768 ft | 405 kts | 277° |
| 2026-04-20 16:06 | 23.06296 | 48.14879 | 39771 ft | 406 kts | 277° |
| 2026-04-20 16:07 | 23.06761 | 48.08774 | 39513 ft | 405 kts | 277° |
| 2026-04-20 16:07 | 23.06992 | 48.05719 | 39280 ft | 406 kts | 277° |
| 2026-04-20 16:07 | 23.07223 | 48.02668 | 39049 ft | 406 kts | 277° |
| 2026-04-20 16:08 | 23.07453 | 47.99618 | 38820 ft | 405 kts | 277° |
| 2026-04-20 16:08 | 23.07682 | 47.96565 | 38615 ft | 404 kts | 277° |
| 2026-04-20 16:08 | 23.07910 | 47.93529 | 38382 ft | 403 kts | 277° |
| 2026-04-20 16:08 | 23.08137 | 47.90497 | 38118 ft | 403 kts | 277° |
| 2026-04-20 16:09 | 23.08364 | 47.87460 | 37846 ft | 404 kts | 277° |
| 2026-04-20 16:09 | 23.08694 | 47.84433 | 37581 ft | 404 kts | 281° |
| 2026-04-20 16:09 | 23.09333 | 47.81464 | 37324 ft | 404 kts | 287° |
| 2026-04-20 16:09 | 23.10317 | 47.78604 | 37065 ft | 405 kts | 293° |
| 2026-04-20 16:10 | 23.11655 | 47.75905 | 36816 ft | 409 kts | 300° |
| 2026-04-20 16:10 | 23.13350 | 47.73404 | 36570 ft | 414 kts | 306° |
| 2026-04-20 16:10 | 23.15383 | 47.71164 | 36335 ft | 420 kts | 313° |
| 2026-04-20 16:10 | 23.17730 | 47.69237 | 36088 ft | 428 kts | 321° |
| 2026-04-20 16:11 | 23.20333 | 47.67687 | 35842 ft | 437 kts | 328° |
| 2026-04-20 16:11 | 23.23233 | 47.66473 | 35617 ft | 442 kts | 331° |
| 2026-04-20 16:11 | 23.26046 | 47.65172 | 35386 ft | 436 kts | 326° |
| 2026-04-20 16:11 | 23.28696 | 47.63594 | 35152 ft | 433 kts | 322° |
| 2026-04-20 16:12 | 23.31286 | 47.61919 | 34920 ft | 434 kts | 322° |
| 2026-04-20 16:12 | 23.33863 | 47.60216 | 34453 ft | 432 kts | 321° |
| 2026-04-20 16:12 | 23.36434 | 47.58496 | 33573 ft | 436 kts | 321° |
| 2026-04-20 16:12 | 23.39025 | 47.56747 | 32595 ft | 440 kts | 321° |
| 2026-04-20 16:13 | 23.41636 | 47.54981 | 31653 ft | 444 kts | 322° |
| 2026-04-20 16:13 | 23.44268 | 47.53175 | 30660 ft | 449 kts | 321° |
| 2026-04-20 16:13 | 23.46667 | 47.51073 | 29611 ft | 449 kts | 310° |
| 2026-04-20 16:13 | 23.48689 | 47.48405 | 29017 ft | 459 kts | 303° |
| 2026-04-20 16:14 | 23.50616 | 47.45581 | 28701 ft | 467 kts | 303° |
| 2026-04-20 16:14 | 23.52543 | 47.42739 | 27978 ft | 464 kts | 303° |
| 2026-04-20 16:14 | 23.54453 | 47.39920 | 27251 ft | 460 kts | 302° |
| 2026-04-20 16:14 | 23.56317 | 47.37167 | 26660 ft | 456 kts | 302° |
| 2026-04-20 16:15 | 23.58192 | 47.34395 | 26079 ft | 452 kts | 302° |
| 2026-04-20 16:15 | 23.60052 | 47.31641 | 25488 ft | 450 kts | 302° |
| 2026-04-20 16:15 | 23.61899 | 47.28907 | 24899 ft | 447 kts | 302° |
| 2026-04-20 16:15 | 23.63739 | 47.26182 | 24318 ft | 444 kts | 302° |
| 2026-04-20 16:16 | 23.65561 | 47.23481 | 23749 ft | 441 kts | 302° |
| 2026-04-20 16:16 | 23.67372 | 47.20797 | 23142 ft | 438 kts | 302° |
| 2026-04-20 16:16 | 23.69168 | 47.18131 | 22542 ft | 435 kts | 302° |
| 2026-04-20 16:16 | 23.70958 | 47.15474 | 21950 ft | 433 kts | 302° |
| 2026-04-20 16:17 | 23.72736 | 47.12832 | 21413 ft | 431 kts | 302° |
| 2026-04-20 16:17 | 23.74507 | 47.10201 | 20859 ft | 430 kts | 302° |
| 2026-04-20 16:17 | 23.76277 | 47.07569 | 20296 ft | 429 kts | 302° |
| 2026-04-20 16:17 | 23.78038 | 47.04949 | 19742 ft | 428 kts | 302° |
| 2026-04-20 16:18 | 23.79799 | 47.02328 | 19180 ft | 427 kts | 302° |
| 2026-04-20 16:18 | 23.81552 | 46.99717 | 18635 ft | 426 kts | 302° |
| 2026-04-20 16:18 | 23.83299 | 46.97115 | 18086 ft | 425 kts | 302° |
| 2026-04-20 16:18 | 23.85038 | 46.94519 | 17482 ft | 420 kts | 303° |
| 2026-04-20 16:19 | 23.86756 | 46.91960 | 16937 ft | 416 kts | 303° |
| 2026-04-20 16:19 | 23.88563 | 46.89506 | 16389 ft | 416 kts | 311° |
| 2026-04-20 16:19 | 23.90857 | 46.87562 | 15844 ft | 419 kts | 326° |
| 2026-04-20 16:19 | 23.93398 | 46.86007 | 15306 ft | 418 kts | 328° |
| 2026-04-20 16:20 | 23.95922 | 46.84528 | 14768 ft | 416 kts | 329° |
| 2026-04-20 16:20 | 23.98492 | 46.83018 | 14221 ft | 413 kts | 329° |
| 2026-04-20 16:20 | 24.01010 | 46.81531 | 13789 ft | 411 kts | 328° |
| 2026-04-20 16:20 | 24.03484 | 46.80066 | 13229 ft | 408 kts | 329° |
| 2026-04-20 16:21 | 24.05971 | 46.78588 | 12706 ft | 406 kts | 329° |
| 2026-04-20 16:21 | 24.08449 | 46.77114 | 12179 ft | 404 kts | 329° |
| 2026-04-20 16:21 | 24.10916 | 46.75648 | 11792 ft | 402 kts | 329° |
| 2026-04-20 16:21 | 24.13372 | 46.74189 | 11776 ft | 402 kts | 329° |
| 2026-04-20 16:22 | 24.15830 | 46.72725 | 11782 ft | 401 kts | 329° |
| 2026-04-20 16:22 | 24.18284 | 46.71261 | 11781 ft | 401 kts | 329° |
| 2026-04-20 16:22 | 24.20726 | 46.69804 | 11781 ft | 401 kts | 329° |
| 2026-04-20 16:22 | 24.23180 | 46.68340 | 11780 ft | 401 kts | 329° |
| 2026-04-20 16:23 | 24.25635 | 46.66876 | 11780 ft | 401 kts | 329° |
| 2026-04-20 16:23 | 24.28085 | 46.65412 | 11796 ft | 402 kts | 329° |
| 2026-04-20 16:23 | 24.30554 | 46.63936 | 11797 ft | 406 kts | 329° |
| 2026-04-20 16:23 | 24.33033 | 46.62454 | 11800 ft | 407 kts | 329° |
| 2026-04-20 16:24 | 24.35526 | 46.60965 | 11583 ft | 406 kts | 329° |
| 2026-04-20 16:24 | 24.38003 | 46.59484 | 11350 ft | 406 kts | 329° |
| 2026-04-20 16:24 | 24.40478 | 46.58006 | 11101 ft | 404 kts | 329° |
| 2026-04-20 16:24 | 24.42943 | 46.56534 | 10855 ft | 403 kts | 330° |
| 2026-04-20 16:25 | 24.45388 | 46.55067 | 10646 ft | 399 kts | 330° |
| 2026-04-20 16:25 | 24.47822 | 46.53609 | 10422 ft | 399 kts | 330° |
| 2026-04-20 16:25 | 24.50264 | 46.52143 | 10181 ft | 400 kts | 330° |
| 2026-04-20 16:25 | 24.52698 | 46.50683 | 9951 ft | 399 kts | 330° |
| 2026-04-20 16:26 | 24.55099 | 46.49242 | 9752 ft | 385 kts | 330° |
| 2026-04-20 16:26 | 24.57401 | 46.47861 | 9492 ft | 369 kts | 330° |
| 2026-04-20 16:26 | 24.59598 | 46.46541 | 9253 ft | 354 kts | 330° |
| 2026-04-20 16:26 | 24.61726 | 46.45263 | 9023 ft | 341 kts | 330° |
| 2026-04-20 16:27 | 24.63759 | 46.44041 | 8825 ft | 321 kts | 330° |
| 2026-04-20 16:27 | 24.65649 | 46.42906 | 8705 ft | 302 kts | 330° |
| 2026-04-20 16:27 | 24.67487 | 46.41800 | 8586 ft | 302 kts | 330° |
| 2026-04-20 16:27 | 24.69330 | 46.40686 | 8463 ft | 302 kts | 329° |
| 2026-04-20 16:28 | 24.71149 | 46.39534 | 8353 ft | 302 kts | 329° |
| 2026-04-20 16:28 | 24.72961 | 46.38371 | 8212 ft | 301 kts | 329° |
| 2026-04-20 16:28 | 24.74772 | 46.37213 | 8021 ft | 300 kts | 329° |
| 2026-04-20 16:28 | 24.76576 | 46.36064 | 7784 ft | 300 kts | 329° |
| 2026-04-20 16:29 | 24.78377 | 46.34917 | 7551 ft | 298 kts | 329° |
| 2026-04-20 16:29 | 24.80171 | 46.33781 | 7317 ft | 297 kts | 330° |
| 2026-04-20 16:29 | 24.81962 | 46.32647 | 7079 ft | 297 kts | 330° |
| 2026-04-20 16:29 | 24.83748 | 46.31516 | 6944 ft | 297 kts | 330° |
| 2026-04-20 16:30 | 24.85531 | 46.30387 | 6827 ft | 295 kts | 330° |
| 2026-04-20 16:30 | 24.87306 | 46.29261 | 6716 ft | 295 kts | 330° |
| 2026-04-20 16:30 | 24.89084 | 46.28135 | 6597 ft | 294 kts | 331° |
| 2026-04-20 16:30 | 24.90853 | 46.27011 | 6479 ft | 294 kts | 330° |
| 2026-04-20 16:31 | 24.92607 | 46.25882 | 6364 ft | 292 kts | 331° |
| 2026-04-20 16:31 | 24.94361 | 46.24756 | 6240 ft | 292 kts | 331° |
| 2026-04-20 16:31 | 24.96109 | 46.23633 | 6134 ft | 290 kts | 331° |
| 2026-04-20 16:31 | 24.97850 | 46.22521 | 6017 ft | 288 kts | 330° |
| 2026-04-20 16:32 | 24.99575 | 46.21419 | 5996 ft | 288 kts | 332° |
| 2026-04-20 16:32 | 25.01318 | 46.20312 | 5994 ft | 289 kts | 331° |
| 2026-04-20 16:32 | 25.03056 | 46.19200 | 5992 ft | 288 kts | 330° |
| 2026-04-20 16:32 | 25.04783 | 46.18090 | 5995 ft | 288 kts | 330° |
| 2026-04-20 16:33 | 25.06578 | 46.17118 | 5989 ft | 282 kts | 344° |
| 2026-04-20 16:33 | 25.08441 | 46.17023 | 5996 ft | 264 kts | 14° |
| 2026-04-20 16:33 | 25.10054 | 46.17913 | 6000 ft | 258 kts | 44° |
| 2026-04-20 16:33 | 25.11136 | 46.19423 | 6002 ft | 254 kts | 60° |
| 2026-04-20 16:34 | 25.12035 | 46.21129 | 6000 ft | 254 kts | 62° |
| 2026-04-20 16:34 | 25.12908 | 46.22822 | 5999 ft | 254 kts | 62° |
| 2026-04-20 16:34 | 25.13777 | 46.24489 | 5998 ft | 254 kts | 62° |
| 2026-04-20 16:34 | 25.14595 | 46.26217 | 5991 ft | 253 kts | 70° |
| 2026-04-20 16:35 | 25.14952 | 46.28096 | 5946 ft | 251 kts | 86° |
| 2026-04-20 16:35 | 25.15064 | 46.30016 | 5830 ft | 251 kts | 89° |
| 2026-04-20 16:35 | 25.15148 | 46.31943 | 5714 ft | 251 kts | 89° |
| 2026-04-20 16:35 | 25.15236 | 46.33879 | 5590 ft | 249 kts | 88° |
| 2026-04-20 16:36 | 25.15328 | 46.35793 | 5470 ft | 249 kts | 88° |
| 2026-04-20 16:36 | 25.15421 | 46.37677 | 5346 ft | 248 kts | 88° |
| 2026-04-20 16:36 | 25.15518 | 46.39593 | 5231 ft | 245 kts | 88° |
| 2026-04-20 16:36 | 25.15612 | 46.41443 | 5120 ft | 243 kts | 88° |
| 2026-04-20 16:37 | 25.15709 | 46.43327 | 5014 ft | 243 kts | 88° |
| 2026-04-20 16:37 | 25.15804 | 46.45201 | 4997 ft | 244 kts | 87° |
| 2026-04-20 16:37 | 25.15899 | 46.47066 | 5002 ft | 243 kts | 87° |
| 2026-04-20 16:37 | 25.15995 | 46.48927 | 5003 ft | 242 kts | 88° |
| 2026-04-20 16:38 | 25.16088 | 46.50741 | 4992 ft | 233 kts | 88° |
| 2026-04-20 16:38 | 25.16177 | 46.52476 | 4992 ft | 215 kts | 88° |
| 2026-04-20 16:38 | 25.16145 | 46.54041 | 4970 ft | 198 kts | 104° |
| 2026-04-20 16:38 | 25.15512 | 46.55328 | 4991 ft | 190 kts | 126° |
| 2026-04-20 16:39 | 25.14526 | 46.56322 | 5002 ft | 194 kts | 144° |
| 2026-04-20 16:39 | 25.13356 | 46.57128 | 5001 ft | 197 kts | 145° |
| 2026-04-20 16:39 | 25.12200 | 46.57872 | 4991 ft | 189 kts | 145° |
| 2026-04-20 16:39 | 25.11111 | 46.58562 | 5004 ft | 175 kts | 146° |
| 2026-04-20 16:40 | 25.10101 | 46.59209 | 4877 ft | 161 kts | 144° |
| 2026-04-20 16:40 | 25.09140 | 46.59830 | 4660 ft | 156 kts | 144° |
| 2026-04-20 16:40 | 25.08218 | 46.60417 | 4452 ft | 149 kts | 143° |
| 2026-04-20 16:40 | 25.07363 | 46.60960 | 4231 ft | 139 kts | 143° |
| 2026-04-20 16:41 | 25.06530 | 46.61492 | 4078 ft | 138 kts | 144° |
| 2026-04-20 16:41 | 25.05693 | 46.62026 | 3893 ft | 139 kts | 144° |
| 2026-04-20 16:41 | 25.04856 | 46.62558 | 3723 ft | 138 kts | 145° |
| 2026-04-20 16:41 | 25.04026 | 46.63085 | 3542 ft | 137 kts | 144° |
| 2026-04-20 16:42 | 25.03205 | 46.63607 | 3382 ft | 136 kts | 145° |
| 2026-04-20 16:42 | 25.02379 | 46.64132 | 3207 ft | 136 kts | 145° |
| 2026-04-20 16:42 | 25.01836 | 46.64477 | 3099 ft | 136 kts | 144° |
| 2026-04-20 16:42 | 25.00745 | 46.65170 | 2881 ft | 136 kts | 145° |
| 2026-04-20 16:43 | 25.00188 | 46.65515 | 2744 ft | 135 kts | 146° |
| 2026-04-20 16:43 | 24.99369 | 46.66020 | 2557 ft | 135 kts | 146° |
| 2026-04-20 16:43 | 24.98559 | 46.66551 | 2369 ft | 139 kts | 144° |
| 2026-04-20 16:43 | 24.97733 | 46.67083 | 2207 ft | 137 kts | 144° |
| 2026-04-20 16:44 | 24.96886 | 46.67615 | 2052 ft | 141 kts | 143° |
| 2026-04-20 16:44 | 24.96164 | 46.68079 | 2042 ft | 84 kts | 150° |
| 2026-04-20 16:44 | 24.95875 | 46.68263 | 2042 ft | 33 kts | 150° |
| 2026-04-20 16:44 | 24.95682 | 46.68384 | 2044 ft | 31 kts | 150° |
| 2026-04-20 16:45 | 24.95541 | 46.68523 | 2042 ft | 24 kts | 123° |
| 2026-04-20 16:45 | 24.95484 | 46.68684 | 2037 ft | 22 kts | 87° |
| 2026-04-20 16:45 | 24.95497 | 46.68744 | 2042 ft | 0 kts | 66° |
| 2026-04-20 16:46 | 24.95503 | 46.68755 | 2042 ft | 5 kts | 60° |
| 2026-04-20 16:46 | 24.95516 | 46.68811 | 2037 ft | 10 kts | 102° |
| 2026-04-20 16:46 | 24.95446 | 46.68874 | 2043 ft | 17 kts | 150° |
| 2026-04-20 16:46 | 24.95319 | 46.68956 | 2044 ft | 25 kts | 149° |
| 2026-04-20 16:47 | 24.95148 | 46.69063 | 2041 ft | 31 kts | 150° |
| 2026-04-20 16:47 | 24.95007 | 46.69152 | 2045 ft | 23 kts | 149° |
| 2026-04-20 16:47 | 24.94854 | 46.69249 | 2046 ft | 28 kts | 150° |
| 2026-04-20 16:47 | 24.94677 | 46.69360 | 2044 ft | 30 kts | 151° |
| 2026-04-20 16:48 | 24.94556 | 46.69436 | 2039 ft | 16 kts | 150° |
| 2026-04-20 16:48 | 24.94522 | 46.69532 | 2046 ft | 15 kts | 71° |
| 2026-04-20 16:48 | 24.94573 | 46.69638 | 2044 ft | 17 kts | 60° |
| 2026-04-20 16:48 | 24.94632 | 46.69752 | 2041 ft | 18 kts | 61° |
| 2026-04-20 16:49 | 24.94697 | 46.69872 | 2045 ft | 19 kts | 59° |
| 2026-04-20 16:49 | 24.94766 | 46.70002 | 2046 ft | 20 kts | 60° |
| 2026-04-20 16:49 | 24.94840 | 46.70142 | 2044 ft | 22 kts | 60° |
| 2026-04-20 16:49 | 24.94917 | 46.70290 | 2045 ft | 23 kts | 60° |
| 2026-04-20 16:50 | 24.94999 | 46.70446 | 2045 ft | 24 kts | 60° |
| 2026-04-20 16:50 | 24.95084 | 46.70608 | 2046 ft | 25 kts | 60° |
| 2026-04-20 16:50 | 24.95149 | 46.70729 | 2044 ft | 16 kts | 60° |
| 2026-04-20 16:50 | 24.95194 | 46.70825 | 2044 ft | 10 kts | 81° |
| 2026-04-20 16:51 | 24.95159 | 46.70888 | 2046 ft | 10 kts | 143° |
| 2026-04-20 16:51 | 24.95092 | 46.70930 | 2047 ft | 13 kts | 150° |
| 2026-04-20 16:51 | 24.94998 | 46.70991 | 2047 ft | 18 kts | 149° |
| 2026-04-20 16:51 | 24.94879 | 46.71066 | 2044 ft | 21 kts | 151° |
| 2026-04-20 16:52 | 24.94751 | 46.71147 | 2043 ft | 22 kts | 150° |
| 2026-04-20 16:52 | 24.94654 | 46.71208 | 2043 ft | 14 kts | 150° |
| 2026-04-20 16:52 | 24.94586 | 46.71252 | 2046 ft | 7 kts | 150° |
| 2026-04-20 16:52 | 24.94544 | 46.71264 | 2044 ft | 6 kts | 193° |
| 2026-04-20 16:53 | 24.94517 | 46.71235 | 2047 ft | 3 kts | 234° |
| 2026-04-20 16:53 | 24.94502 | 46.71209 | 2045 ft | 5 kts | 238° |
| 2026-04-20 16:53 | 24.94501 | 46.71207 | 2045 ft | 0 kts | 238° |
| 2026-04-20 16:54 | 24.94500 | 46.71206 | 2046 ft | 1 kts | 238° |
| 2026-04-20 16:54 | 24.94489 | 46.71184 | 2046 ft | 0 kts | 239° |
| 2026-04-20 16:54 | 24.94487 | 46.71182 | 2038 ft | 1 kts | 239° |
| 2026-04-20 16:54 | 24.94487 | 46.71181 | 2038 ft | 0 kts | 239° |